sensor_id;sensor_type;location;lat;lon;timestamp;P1;durP1;ratioP1;P2;durP2;ratioP2
43682;SDS011;29285;52.128;21.060;2022-11-15T00:01:26;20.62;;;14.80;;
43682;SDS011;29285;52.128;21.060;2022-11-15T00:06:28;21.35;;;14.83;;
43682;SDS011;29285;52.128;21.060;2022-11-15T00:11:29;21.70;;;15.13;;
43682;SDS011;29285;52.128;21.060;2022-11-15T00:16:30;20.27;;;14.30;;
43682;SDS011;29285;52.128;21.060;2022-11-15T00:21:32;24.87;;;15.85;;
43682;SDS011;29285;52.128;21.060;2022-11-15T00:26:33;23.30;;;16.27;;
43682;SDS011;29285;52.128;21.060;2022-11-15T00:31:34;24.15;;;16.70;;
43682;SDS011;29285;52.128;21.060;2022-11-15T00:36:35;22.60;;;16.77;;
43682;SDS011;29285;52.128;21.060;2022-11-15T00:41:36;24.10;;;15.78;;
43682;SDS011;29285;52.128;21.060;2022-11-15T00:46:37;27.07;;;17.95;;
43682;SDS011;29285;52.128;21.060;2022-11-15T00:51:39;29.15;;;19.77;;
43682;SDS011;29285;52.128;21.060;2022-11-15T00:56:40;26.25;;;16.52;;
43682;SDS011;29285;52.128;21.060;2022-11-15T01:01:41;24.35;;;16.67;;
43682;SDS011;29285;52.128;21.060;2022-11-15T01:06:43;28.15;;;18.62;;
43682;SDS011;29285;52.128;21.060;2022-11-15T01:11:44;30.08;;;18.00;;
43682;SDS011;29285;52.128;21.060;2022-11-15T01:16:45;33.05;;;19.73;;
43682;SDS011;29285;52.128;21.060;2022-11-15T01:21:48;30.82;;;18.00;;
43682;SDS011;29285;52.128;21.060;2022-11-15T01:26:50;26.95;;;17.42;;
43682;SDS011;29285;52.128;21.060;2022-11-15T01:31:52;30.62;;;18.25;;
43682;SDS011;29285;52.128;21.060;2022-11-15T01:36:54;29.45;;;20.27;;
43682;SDS011;29285;52.128;21.060;2022-11-15T01:41:56;26.27;;;16.37;;
43682;SDS011;29285;52.128;21.060;2022-11-15T01:46:57;24.10;;;15.53;;
43682;SDS011;29285;52.128;21.060;2022-11-15T01:52:02;28.57;;;17.50;;
43682;SDS011;29285;52.128;21.060;2022-11-15T01:57:08;27.85;;;16.90;;
43682;SDS011;29285;52.128;21.060;2022-11-15T02:02:11;31.42;;;16.40;;
43682;SDS011;29285;52.128;21.060;2022-11-15T02:07:17;24.35;;;15.63;;
43682;SDS011;29285;52.128;21.060;2022-11-15T02:12:21;24.45;;;16.60;;
43682;SDS011;29285;52.128;21.060;2022-11-15T02:23:02;26.70;;;16.77;;
43682;SDS011;29285;52.128;21.060;2022-11-15T02:44:43;30.68;;;18.85;;
43682;SDS011;29285;52.128;21.060;2022-11-15T02:49:47;30.80;;;20.72;;
43682;SDS011;29285;52.128;21.060;2022-11-15T02:54:55;29.98;;;19.67;;
43682;SDS011;29285;52.128;21.060;2022-11-15T03:05:28;33.42;;;21.15;;
43682;SDS011;29285;52.128;21.060;2022-11-15T03:10:51;36.58;;;20.55;;
43682;SDS011;29285;52.128;21.060;2022-11-15T03:16:28;32.28;;;21.50;;
43682;SDS011;29285;52.128;21.060;2022-11-15T03:21:37;31.90;;;20.70;;
43682;SDS011;29285;52.128;21.060;2022-11-15T03:26:41;31.83;;;21.03;;
43682;SDS011;29285;52.128;21.060;2022-11-15T03:31:47;32.48;;;21.77;;
43682;SDS011;29285;52.128;21.060;2022-11-15T03:36:55;34.30;;;20.77;;
43682;SDS011;29285;52.128;21.060;2022-11-15T03:42:42;35.60;;;21.52;;
43682;SDS011;29285;52.128;21.060;2022-11-15T03:47:27;34.33;;;21.95;;
43682;SDS011;29285;52.128;21.060;2022-11-15T03:52:32;36.48;;;21.57;;
43682;SDS011;29285;52.128;21.060;2022-11-15T03:57:35;32.10;;;20.92;;
43682;SDS011;29285;52.128;21.060;2022-11-15T04:02:36;31.33;;;20.25;;
43682;SDS011;29285;52.128;21.060;2022-11-15T04:07:37;34.18;;;20.08;;
43682;SDS011;29285;52.128;21.060;2022-11-15T04:12:40;36.13;;;21.77;;
43682;SDS011;29285;52.128;21.060;2022-11-15T04:17:45;33.45;;;19.95;;
43682;SDS011;29285;52.128;21.060;2022-11-15T04:22:52;36.70;;;22.35;;
43682;SDS011;29285;52.128;21.060;2022-11-15T04:28:14;39.55;;;22.37;;
43682;SDS011;29285;52.128;21.060;2022-11-15T04:33:15;34.88;;;21.57;;
43682;SDS011;29285;52.128;21.060;2022-11-15T04:38:16;34.18;;;20.35;;
43682;SDS011;29285;52.128;21.060;2022-11-15T04:43:17;33.90;;;19.90;;
43682;SDS011;29285;52.128;21.060;2022-11-15T04:48:19;30.72;;;20.52;;
43682;SDS011;29285;52.128;21.060;2022-11-15T04:53:20;32.93;;;18.95;;
43682;SDS011;29285;52.128;21.060;2022-11-15T04:58:21;30.43;;;18.07;;
43682;SDS011;29285;52.128;21.060;2022-11-15T05:03:22;36.28;;;21.60;;
43682;SDS011;29285;52.128;21.060;2022-11-15T05:08:42;32.23;;;19.73;;
43682;SDS011;29285;52.128;21.060;2022-11-15T05:13:43;33.28;;;19.75;;
43682;SDS011;29285;52.128;21.060;2022-11-15T05:18:45;27.55;;;16.07;;
43682;SDS011;29285;52.128;21.060;2022-11-15T05:23:46;34.98;;;19.07;;
43682;SDS011;29285;52.128;21.060;2022-11-15T05:28:51;37.00;;;19.67;;
43682;SDS011;29285;52.128;21.060;2022-11-15T05:33:58;35.48;;;21.70;;
43682;SDS011;29285;52.128;21.060;2022-11-15T05:39:01;37.77;;;21.10;;
43682;SDS011;29285;52.128;21.060;2022-11-15T05:44:06;32.93;;;18.05;;
43682;SDS011;29285;52.128;21.060;2022-11-15T05:49:11;40.65;;;17.80;;
43682;SDS011;29285;52.128;21.060;2022-11-15T05:54:16;35.20;;;17.60;;
43682;SDS011;29285;52.128;21.060;2022-11-15T05:59:18;35.83;;;19.60;;
43682;SDS011;29285;52.128;21.060;2022-11-15T06:04:20;36.48;;;20.08;;
43682;SDS011;29285;52.128;21.060;2022-11-15T06:09:21;32.80;;;17.87;;
43682;SDS011;29285;52.128;21.060;2022-11-15T06:14:23;35.63;;;18.55;;
43682;SDS011;29285;52.128;21.060;2022-11-15T06:19:24;42.17;;;20.40;;
43682;SDS011;29285;52.128;21.060;2022-11-15T06:24:25;32.78;;;19.10;;
43682;SDS011;29285;52.128;21.060;2022-11-15T06:29:26;35.95;;;20.97;;
43682;SDS011;29285;52.128;21.060;2022-11-15T06:34:27;36.63;;;19.05;;
43682;SDS011;29285;52.128;21.060;2022-11-15T06:39:29;41.23;;;21.60;;
43682;SDS011;29285;52.128;21.060;2022-11-15T06:44:30;33.85;;;18.20;;
43682;SDS011;29285;52.128;21.060;2022-11-15T06:49:31;34.53;;;19.15;;
43682;SDS011;29285;52.128;21.060;2022-11-15T06:54:33;30.17;;;16.60;;
43682;SDS011;29285;52.128;21.060;2022-11-15T06:59:34;35.28;;;19.00;;
43682;SDS011;29285;52.128;21.060;2022-11-15T07:04:35;29.70;;;15.72;;
43682;SDS011;29285;52.128;21.060;2022-11-15T07:09:36;32.45;;;17.25;;
43682;SDS011;29285;52.128;21.060;2022-11-15T07:14:38;28.73;;;14.40;;
43682;SDS011;29285;52.128;21.060;2022-11-15T07:19:39;31.15;;;16.17;;
43682;SDS011;29285;52.128;21.060;2022-11-15T07:24:40;31.17;;;17.10;;
43682;SDS011;29285;52.128;21.060;2022-11-15T07:29:42;37.10;;;17.52;;
43682;SDS011;29285;52.128;21.060;2022-11-15T07:34:43;32.65;;;17.48;;
43682;SDS011;29285;52.128;21.060;2022-11-15T07:39:46;27.58;;;17.35;;
43682;SDS011;29285;52.128;21.060;2022-11-15T07:44:47;32.28;;;17.60;;
43682;SDS011;29285;52.128;21.060;2022-11-15T07:49:48;28.32;;;15.68;;
43682;SDS011;29285;52.128;21.060;2022-11-15T07:54:49;28.07;;;16.35;;
43682;SDS011;29285;52.128;21.060;2022-11-15T07:59:51;25.88;;;15.18;;
43682;SDS011;29285;52.128;21.060;2022-11-15T08:04:52;27.82;;;16.23;;
43682;SDS011;29285;52.128;21.060;2022-11-15T08:09:53;26.77;;;15.25;;
43682;SDS011;29285;52.128;21.060;2022-11-15T08:14:56;22.48;;;13.32;;
43682;SDS011;29285;52.128;21.060;2022-11-15T08:19:57;24.70;;;15.10;;
43682;SDS011;29285;52.128;21.060;2022-11-15T08:24:58;21.52;;;13.32;;
43682;SDS011;29285;52.128;21.060;2022-11-15T08:30:00;22.82;;;13.60;;
43682;SDS011;29285;52.128;21.060;2022-11-15T08:35:02;19.57;;;10.93;;
43682;SDS011;29285;52.128;21.060;2022-11-15T08:40:05;21.87;;;13.20;;
43682;SDS011;29285;52.128;21.060;2022-11-15T08:45:08;19.00;;;12.55;;
43682;SDS011;29285;52.128;21.060;2022-11-15T08:50:10;25.17;;;13.15;;
43682;SDS011;29285;52.128;21.060;2022-11-15T08:55:11;22.27;;;13.35;;
43682;SDS011;29285;52.128;21.060;2022-11-15T09:00:12;27.75;;;15.25;;
43682;SDS011;29285;52.128;21.060;2022-11-15T09:05:15;28.87;;;15.83;;
43682;SDS011;29285;52.128;21.060;2022-11-15T09:10:16;26.25;;;15.63;;
43682;SDS011;29285;52.128;21.060;2022-11-15T09:15:18;23.05;;;13.80;;
43682;SDS011;29285;52.128;21.060;2022-11-15T09:20:20;24.63;;;14.93;;
43682;SDS011;29285;52.128;21.060;2022-11-15T09:25:21;23.42;;;15.35;;
43682;SDS011;29285;52.128;21.060;2022-11-15T09:30:23;19.55;;;11.73;;
43682;SDS011;29285;52.128;21.060;2022-11-15T09:35:25;26.75;;;16.00;;
43682;SDS011;29285;52.128;21.060;2022-11-15T09:40:27;24.52;;;14.03;;
43682;SDS011;29285;52.128;21.060;2022-11-15T09:51:28;25.40;;;16.77;;
43682;SDS011;29285;52.128;21.060;2022-11-15T09:56:48;30.15;;;16.20;;
43682;SDS011;29285;52.128;21.060;2022-11-15T10:02:09;29.15;;;17.57;;
43682;SDS011;29285;52.128;21.060;2022-11-15T10:07:25;28.55;;;17.92;;
43682;SDS011;29285;52.128;21.060;2022-11-15T10:23:10;22.82;;;15.60;;
43682;SDS011;29285;52.128;21.060;2022-11-15T10:33:32;25.95;;;16.57;;
43682;SDS011;29285;52.128;21.060;2022-11-15T10:44:02;24.85;;;15.23;;
43682;SDS011;29285;52.128;21.060;2022-11-15T10:49:28;21.62;;;13.78;;
43682;SDS011;29285;52.128;21.060;2022-11-15T10:54:36;23.42;;;15.53;;
43682;SDS011;29285;52.128;21.060;2022-11-15T10:59:48;27.07;;;15.20;;
43682;SDS011;29285;52.128;21.060;2022-11-15T11:04:53;24.35;;;15.13;;
43682;SDS011;29285;52.128;21.060;2022-11-15T11:09:59;27.00;;;17.17;;
43682;SDS011;29285;52.128;21.060;2022-11-15T11:15:09;29.77;;;17.27;;
43682;SDS011;29285;52.128;21.060;2022-11-15T11:20:30;30.00;;;16.37;;
43682;SDS011;29285;52.128;21.060;2022-11-15T11:31:20;28.17;;;16.75;;
43682;SDS011;29285;52.128;21.060;2022-11-15T11:36:45;34.60;;;19.57;;
43682;SDS011;29285;52.128;21.060;2022-11-15T11:41:55;30.40;;;19.48;;
43682;SDS011;29285;52.128;21.060;2022-11-15T11:47:00;27.98;;;16.57;;
43682;SDS011;29285;52.128;21.060;2022-11-15T11:57:47;28.32;;;19.05;;
43682;SDS011;29285;52.128;21.060;2022-11-15T12:08:45;32.08;;;18.67;;
43682;SDS011;29285;52.128;21.060;2022-11-15T12:13:56;36.10;;;20.88;;
43682;SDS011;29285;52.128;21.060;2022-11-15T12:19:01;32.20;;;18.92;;
43682;SDS011;29285;52.128;21.060;2022-11-15T12:24:15;33.40;;;19.50;;
43682;SDS011;29285;52.128;21.060;2022-11-15T12:29:28;32.42;;;19.05;;
43682;SDS011;29285;52.128;21.060;2022-11-15T12:34:40;33.63;;;21.52;;
43682;SDS011;29285;52.128;21.060;2022-11-15T13:06:43;31.52;;;19.70;;
43682;SDS011;29285;52.128;21.060;2022-11-15T13:11:46;30.70;;;20.05;;
43682;SDS011;29285;52.128;21.060;2022-11-15T13:16:58;29.27;;;19.35;;
43682;SDS011;29285;52.128;21.060;2022-11-15T13:22:00;29.77;;;19.65;;
43682;SDS011;29285;52.128;21.060;2022-11-15T13:27:25;31.27;;;19.62;;
43682;SDS011;29285;52.128;21.060;2022-11-15T13:32:27;30.23;;;21.07;;
43682;SDS011;29285;52.128;21.060;2022-11-15T13:37:28;34.43;;;20.65;;
43682;SDS011;29285;52.128;21.060;2022-11-15T13:42:31;34.67;;;21.00;;
43682;SDS011;29285;52.128;21.060;2022-11-15T13:47:32;32.67;;;21.10;;
43682;SDS011;29285;52.128;21.060;2022-11-15T13:52:34;30.20;;;20.55;;
43682;SDS011;29285;52.128;21.060;2022-11-15T13:57:41;34.23;;;21.27;;
43682;SDS011;29285;52.128;21.060;2022-11-15T14:02:45;33.42;;;21.17;;
43682;SDS011;29285;52.128;21.060;2022-11-15T14:08:03;33.85;;;20.82;;
43682;SDS011;29285;52.128;21.060;2022-11-15T14:13:28;34.48;;;22.32;;
43682;SDS011;29285;52.128;21.060;2022-11-15T14:18:41;31.07;;;20.40;;
43682;SDS011;29285;52.128;21.060;2022-11-15T14:23:51;35.68;;;22.02;;
43682;SDS011;29285;52.128;21.060;2022-11-15T14:28:53;36.48;;;21.82;;
43682;SDS011;29285;52.128;21.060;2022-11-15T14:33:54;39.83;;;21.97;;
43682;SDS011;29285;52.128;21.060;2022-11-15T14:38:55;40.38;;;23.77;;
43682;SDS011;29285;52.128;21.060;2022-11-15T14:43:56;38.83;;;23.27;;
43682;SDS011;29285;52.128;21.060;2022-11-15T14:48:57;36.08;;;22.62;;
43682;SDS011;29285;52.128;21.060;2022-11-15T14:53:59;37.33;;;22.00;;
43682;SDS011;29285;52.128;21.060;2022-11-15T14:59:00;34.95;;;22.95;;
43682;SDS011;29285;52.128;21.060;2022-11-15T15:04:01;38.58;;;24.63;;
43682;SDS011;29285;52.128;21.060;2022-11-15T15:09:03;34.30;;;22.10;;
43682;SDS011;29285;52.128;21.060;2022-11-15T15:14:04;35.70;;;23.75;;
43682;SDS011;29285;52.128;21.060;2022-11-15T15:19:05;39.23;;;24.52;;
43682;SDS011;29285;52.128;21.060;2022-11-15T15:24:07;35.38;;;22.60;;
43682;SDS011;29285;52.128;21.060;2022-11-15T15:29:15;41.70;;;25.32;;
43682;SDS011;29285;52.128;21.060;2022-11-15T15:34:16;39.73;;;26.45;;
43682;SDS011;29285;52.128;21.060;2022-11-15T15:39:17;41.75;;;25.55;;
43682;SDS011;29285;52.128;21.060;2022-11-15T15:44:19;38.45;;;23.50;;
43682;SDS011;29285;52.128;21.060;2022-11-15T15:49:20;41.10;;;25.90;;
43682;SDS011;29285;52.128;21.060;2022-11-15T15:54:21;38.40;;;24.55;;
43682;SDS011;29285;52.128;21.060;2022-11-15T15:59:23;41.37;;;25.20;;
43682;SDS011;29285;52.128;21.060;2022-11-15T16:04:24;40.43;;;25.48;;
43682;SDS011;29285;52.128;21.060;2022-11-15T16:09:29;43.25;;;26.50;;
43682;SDS011;29285;52.128;21.060;2022-11-15T16:19:51;47.67;;;25.90;;
43682;SDS011;29285;52.128;21.060;2022-11-15T16:24:52;39.70;;;23.27;;
43682;SDS011;29285;52.128;21.060;2022-11-15T16:29:54;43.90;;;25.70;;
43682;SDS011;29285;52.128;21.060;2022-11-15T16:34:55;43.40;;;27.05;;
43682;SDS011;29285;52.128;21.060;2022-11-15T16:39:58;45.55;;;25.82;;
43682;SDS011;29285;52.128;21.060;2022-11-15T16:44:59;47.38;;;26.27;;
43682;SDS011;29285;52.128;21.060;2022-11-15T16:50:00;48.30;;;27.50;;
43682;SDS011;29285;52.128;21.060;2022-11-15T16:55:01;45.95;;;23.90;;
43682;SDS011;29285;52.128;21.060;2022-11-15T17:00:03;42.98;;;25.77;;
43682;SDS011;29285;52.128;21.060;2022-11-15T17:05:06;46.92;;;26.97;;
43682;SDS011;29285;52.128;21.060;2022-11-15T17:10:09;49.38;;;26.42;;
43682;SDS011;29285;52.128;21.060;2022-11-15T17:15:12;49.05;;;28.23;;
43682;SDS011;29285;52.128;21.060;2022-11-15T17:20:14;52.80;;;24.75;;
43682;SDS011;29285;52.128;21.060;2022-11-15T17:30:19;45.33;;;24.87;;
43682;SDS011;29285;52.128;21.060;2022-11-15T17:35:20;50.17;;;25.70;;
43682;SDS011;29285;52.128;21.060;2022-11-15T17:40:21;48.08;;;27.65;;
43682;SDS011;29285;52.128;21.060;2022-11-15T17:45:23;42.43;;;24.25;;
43682;SDS011;29285;52.128;21.060;2022-11-15T17:50:24;41.13;;;22.85;;
43682;SDS011;29285;52.128;21.060;2022-11-15T17:55:25;49.13;;;23.85;;
43682;SDS011;29285;52.128;21.060;2022-11-15T18:00:26;47.23;;;22.50;;
43682;SDS011;29285;52.128;21.060;2022-11-15T18:05:27;54.27;;;26.90;;
43682;SDS011;29285;52.128;21.060;2022-11-15T18:10:29;47.83;;;24.77;;
43682;SDS011;29285;52.128;21.060;2022-11-15T18:15:30;46.13;;;25.50;;
43682;SDS011;29285;52.128;21.060;2022-11-15T18:20:32;43.60;;;22.73;;
43682;SDS011;29285;52.128;21.060;2022-11-15T18:25:33;49.20;;;27.60;;
43682;SDS011;29285;52.128;21.060;2022-11-15T18:30:36;48.23;;;24.30;;
43682;SDS011;29285;52.128;21.060;2022-11-15T18:35:38;47.17;;;24.27;;
43682;SDS011;29285;52.128;21.060;2022-11-15T18:40:39;40.98;;;24.70;;
43682;SDS011;29285;52.128;21.060;2022-11-15T18:45:41;42.48;;;23.35;;
43682;SDS011;29285;52.128;21.060;2022-11-15T18:50:42;40.30;;;23.55;;
43682;SDS011;29285;52.128;21.060;2022-11-15T18:55:43;43.50;;;24.15;;
43682;SDS011;29285;52.128;21.060;2022-11-15T19:00:44;39.70;;;20.52;;
43682;SDS011;29285;52.128;21.060;2022-11-15T19:05:45;37.55;;;21.15;;
43682;SDS011;29285;52.128;21.060;2022-11-15T19:10:47;36.42;;;20.50;;
43682;SDS011;29285;52.128;21.060;2022-11-15T19:15:51;33.23;;;18.25;;
43682;SDS011;29285;52.128;21.060;2022-11-15T19:21:04;30.72;;;18.52;;
43682;SDS011;29285;52.128;21.060;2022-11-15T19:26:11;32.98;;;18.25;;
43682;SDS011;29285;52.128;21.060;2022-11-15T19:36:18;22.02;;;13.20;;
43682;SDS011;29285;52.128;21.060;2022-11-15T19:41:27;25.77;;;14.45;;
43682;SDS011;29285;52.128;21.060;2022-11-15T19:46:29;22.40;;;13.72;;
43682;SDS011;29285;52.128;21.060;2022-11-15T19:51:30;25.82;;;14.40;;
43682;SDS011;29285;52.128;21.060;2022-11-15T19:56:32;23.05;;;13.62;;
43682;SDS011;29285;52.128;21.060;2022-11-15T20:01:34;19.30;;;11.95;;
43682;SDS011;29285;52.128;21.060;2022-11-15T20:06:39;21.37;;;11.95;;
43682;SDS011;29285;52.128;21.060;2022-11-15T20:11:42;18.40;;;10.85;;
43682;SDS011;29285;52.128;21.060;2022-11-15T20:16:44;18.45;;;12.37;;
43682;SDS011;29285;52.128;21.060;2022-11-15T20:21:45;21.93;;;12.35;;
43682;SDS011;29285;52.128;21.060;2022-11-15T20:26:46;19.45;;;11.85;;
43682;SDS011;29285;52.128;21.060;2022-11-15T20:31:48;23.32;;;14.10;;
43682;SDS011;29285;52.128;21.060;2022-11-15T20:36:49;22.62;;;13.08;;
43682;SDS011;29285;52.128;21.060;2022-11-15T20:41:50;23.25;;;12.90;;
43682;SDS011;29285;52.128;21.060;2022-11-15T20:46:51;19.45;;;12.70;;
43682;SDS011;29285;52.128;21.060;2022-11-15T20:51:52;20.17;;;11.40;;
43682;SDS011;29285;52.128;21.060;2022-11-15T20:56:54;21.05;;;11.65;;
43682;SDS011;29285;52.128;21.060;2022-11-15T21:01:55;19.35;;;11.57;;
43682;SDS011;29285;52.128;21.060;2022-11-15T21:06:56;15.72;;;10.40;;
43682;SDS011;29285;52.128;21.060;2022-11-15T21:12:00;14.35;;;9.43;;
43682;SDS011;29285;52.128;21.060;2022-11-15T21:17:14;16.17;;;9.67;;
43682;SDS011;29285;52.128;21.060;2022-11-15T21:22:16;17.23;;;10.90;;
43682;SDS011;29285;52.128;21.060;2022-11-15T21:27:17;13.98;;;9.53;;
43682;SDS011;29285;52.128;21.060;2022-11-15T21:32:19;16.48;;;10.32;;
43682;SDS011;29285;52.128;21.060;2022-11-15T21:37:20;12.47;;;8.85;;
43682;SDS011;29285;52.128;21.060;2022-11-15T21:42:21;13.32;;;8.63;;
43682;SDS011;29285;52.128;21.060;2022-11-15T21:47:22;12.53;;;8.23;;
43682;SDS011;29285;52.128;21.060;2022-11-15T21:52:23;12.85;;;7.87;;
43682;SDS011;29285;52.128;21.060;2022-11-15T21:57:25;11.18;;;7.80;;
43682;SDS011;29285;52.128;21.060;2022-11-15T22:02:28;13.83;;;9.18;;
43682;SDS011;29285;52.128;21.060;2022-11-15T22:07:29;11.10;;;7.25;;
43682;SDS011;29285;52.128;21.060;2022-11-15T22:12:30;11.40;;;7.80;;
43682;SDS011;29285;52.128;21.060;2022-11-15T22:17:31;11.40;;;7.83;;
43682;SDS011;29285;52.128;21.060;2022-11-15T22:22:51;12.65;;;8.53;;
43682;SDS011;29285;52.128;21.060;2022-11-15T22:27:53;12.60;;;8.80;;
43682;SDS011;29285;52.128;21.060;2022-11-15T22:32:54;14.45;;;9.23;;
43682;SDS011;29285;52.128;21.060;2022-11-15T22:37:56;16.67;;;10.13;;
43682;SDS011;29285;52.128;21.060;2022-11-15T22:42:57;15.55;;;9.38;;
43682;SDS011;29285;52.128;21.060;2022-11-15T22:47:58;14.83;;;9.43;;
43682;SDS011;29285;52.128;21.060;2022-11-15T22:53:00;21.10;;;10.23;;
43682;SDS011;29285;52.128;21.060;2022-11-15T22:58:01;17.42;;;10.60;;
43682;SDS011;29285;52.128;21.060;2022-11-15T23:03:02;20.77;;;11.15;;
43682;SDS011;29285;52.128;21.060;2022-11-15T23:08:04;18.02;;;10.75;;
43682;SDS011;29285;52.128;21.060;2022-11-15T23:13:07;18.60;;;10.58;;
43682;SDS011;29285;52.128;21.060;2022-11-15T23:18:18;18.35;;;11.12;;
43682;SDS011;29285;52.128;21.060;2022-11-15T23:23:19;19.77;;;9.90;;
43682;SDS011;29285;52.128;21.060;2022-11-15T23:28:21;20.95;;;11.08;;
43682;SDS011;29285;52.128;21.060;2022-11-15T23:33:22;18.32;;;10.60;;
43682;SDS011;29285;52.128;21.060;2022-11-15T23:38:42;17.00;;;10.88;;
43682;SDS011;29285;52.128;21.060;2022-11-15T23:43:43;20.05;;;10.95;;
43682;SDS011;29285;52.128;21.060;2022-11-15T23:48:44;19.48;;;12.00;;
43682;SDS011;29285;52.128;21.060;2022-11-15T23:53:47;19.52;;;11.50;;
43682;SDS011;29285;52.128;21.060;2022-11-15T23:58:48;20.68;;;12.53;;
